sensor_id;sensor_type;location;lat;lon;timestamp;pressure;altitude;pressure_sealevel;temperature;humidity
67109;BME280;54027;50.786;7.058;2023-08-07T00:00:28;100777.00;;;13.98;93.25
67109;BME280;54027;50.786;7.058;2023-08-07T00:02:53;100770.97;;;13.97;93.12
67109;BME280;54027;50.786;7.058;2023-08-07T00:05:18;100779.69;;;13.95;94.13
67109;BME280;54027;50.786;7.058;2023-08-07T00:07:44;100783.19;;;13.92;94.44
67109;BME280;54027;50.786;7.058;2023-08-07T00:10:10;100779.75;;;13.92;94.88
67109;BME280;54027;50.786;7.058;2023-08-07T00:12:36;100792.03;;;13.85;95.03
67109;BME280;54027;50.786;7.058;2023-08-07T00:15:04;100785.22;;;13.80;96.01
67109;BME280;54027;50.786;7.058;2023-08-07T00:17:30;100783.56;;;13.76;96.28
67109;BME280;54027;50.786;7.058;2023-08-07T00:19:56;100789.69;;;13.73;96.50
67109;BME280;54027;50.786;7.058;2023-08-07T00:22:21;100784.50;;;13.73;96.16
67109;BME280;54027;50.786;7.058;2023-08-07T00:24:46;100781.84;;;13.75;95.45
67109;BME280;54027;50.786;7.058;2023-08-07T00:27:12;100786.16;;;13.76;95.41
67109;BME280;54027;50.786;7.058;2023-08-07T00:29:38;100767.03;;;13.80;94.29
67109;BME280;54027;50.786;7.058;2023-08-07T00:32:04;100788.63;;;13.82;94.30
67109;BME280;54027;50.786;7.058;2023-08-07T00:34:29;100779.97;;;13.83;94.05
67109;BME280;54027;50.786;7.058;2023-08-07T00:36:55;100773.78;;;13.87;92.85
67109;BME280;54027;50.786;7.058;2023-08-07T00:39:20;100788.44;;;13.89;93.20
67109;BME280;54027;50.786;7.058;2023-08-07T00:41:46;100783.25;;;13.89;93.47
67109;BME280;54027;50.786;7.058;2023-08-07T00:44:11;100778.91;;;13.90;92.42
67109;BME280;54027;50.786;7.058;2023-08-07T00:46:37;100784.97;;;13.92;92.85
67109;BME280;54027;50.786;7.058;2023-08-07T00:49:05;100792.72;;;13.93;93.22
67109;BME280;54027;50.786;7.058;2023-08-07T00:51:31;100787.56;;;13.92;93.20
67109;BME280;54027;50.786;7.058;2023-08-07T00:53:57;100786.72;;;13.90;92.79
67109;BME280;54027;50.786;7.058;2023-08-07T00:56:23;100785.84;;;13.91;93.17
67109;BME280;54027;50.786;7.058;2023-08-07T00:58:49;100790.19;;;13.90;93.01
67109;BME280;54027;50.786;7.058;2023-08-07T01:01:15;100800.69;;;13.86;94.05
67109;BME280;54027;50.786;7.058;2023-08-07T01:03:40;100800.75;;;13.81;93.95
67109;BME280;54027;50.786;7.058;2023-08-07T01:06:06;100807.75;;;13.78;94.89
67109;BME280;54027;50.786;7.058;2023-08-07T01:08:32;100811.25;;;13.77;94.66
67109;BME280;54027;50.786;7.058;2023-08-07T01:11:24;100816.47;;;13.75;95.43
67109;BME280;54027;50.786;7.058;2023-08-07T01:16:48;100810.47;;;13.72;95.11
67109;BME280;54027;50.786;7.058;2023-08-07T01:19:34;100810.41;;;13.75;94.62
67109;BME280;54027;50.786;7.058;2023-08-07T01:22:16;100827.72;;;13.76;95.53
67109;BME280;54027;50.786;7.058;2023-08-07T01:24:43;100811.28;;;13.75;93.84
67109;BME280;54027;50.786;7.058;2023-08-07T01:27:36;100811.22;;;13.78;94.35
67109;BME280;54027;50.786;7.058;2023-08-07T01:35:31;100793.75;;;13.85;91.84
67109;BME280;54027;50.786;7.058;2023-08-07T01:37:59;100790.31;;;13.84;92.83
67109;BME280;54027;50.786;7.058;2023-08-07T01:40:27;100801.50;;;13.86;91.67
67109;BME280;54027;50.786;7.058;2023-08-07T01:42:52;100800.63;;;13.87;91.14
67109;BME280;54027;50.786;7.058;2023-08-07T01:45:25;100803.22;;;13.89;91.18
67109;BME280;54027;50.786;7.058;2023-08-07T01:47:51;100808.41;;;13.89;91.85
67109;BME280;54027;50.786;7.058;2023-08-07T01:50:20;100803.22;;;13.87;91.54
67109;BME280;54027;50.786;7.058;2023-08-07T01:52:46;100810.16;;;13.88;92.00
67109;BME280;54027;50.786;7.058;2023-08-07T01:55:13;100806.63;;;13.89;91.51
67109;BME280;54027;50.786;7.058;2023-08-07T01:57:38;100798.84;;;13.89;90.74
67109;BME280;54027;50.786;7.058;2023-08-07T02:00:04;100810.94;;;13.92;90.94
67109;BME280;54027;50.786;7.058;2023-08-07T02:02:29;100812.63;;;13.94;90.90
67109;BME280;54027;50.786;7.058;2023-08-07T02:04:55;100810.03;;;13.94;91.10
67109;BME280;54027;50.786;7.058;2023-08-07T02:07:20;100811.75;;;13.94;90.35
67109;BME280;54027;50.786;7.058;2023-08-07T02:09:45;100812.56;;;13.97;90.26
67109;BME280;54027;50.786;7.058;2023-08-07T02:12:11;100810.78;;;13.98;90.39
67109;BME280;54027;50.786;7.058;2023-08-07T02:14:36;100815.16;;;13.96;89.74
67109;BME280;54027;50.786;7.058;2023-08-07T02:17:01;100817.75;;;13.97;90.64
67109;BME280;54027;50.786;7.058;2023-08-07T02:19:27;100821.22;;;13.96;90.79
67109;BME280;54027;50.786;7.058;2023-08-07T02:21:52;100835.09;;;13.97;90.41
67109;BME280;54027;50.786;7.058;2023-08-07T02:24:17;100818.63;;;13.96;89.76
67109;BME280;54027;50.786;7.058;2023-08-07T02:26:44;100829.88;;;13.97;89.58
67109;BME280;54027;50.786;7.058;2023-08-07T02:29:10;100830.69;;;13.99;89.75
67109;BME280;54027;50.786;7.058;2023-08-07T02:31:35;100831.50;;;14.01;88.96
67109;BME280;54027;50.786;7.058;2023-08-07T02:34:00;100827.22;;;14.00;89.00
67109;BME280;54027;50.786;7.058;2023-08-07T02:36:26;100827.22;;;14.00;89.48
67109;BME280;54027;50.786;7.058;2023-08-07T02:38:51;100826.31;;;14.01;88.65
67109;BME280;54027;50.786;7.058;2023-08-07T02:41:16;100824.56;;;14.01;88.72
67109;BME280;54027;50.786;7.058;2023-08-07T02:43:42;100825.41;;;14.03;88.26
67109;BME280;54027;50.786;7.058;2023-08-07T02:46:08;100817.56;;;14.05;88.61
67109;BME280;54027;50.786;7.058;2023-08-07T02:48:33;100828.84;;;14.04;88.68
67109;BME280;54027;50.786;7.058;2023-08-07T02:50:58;100822.81;;;14.03;88.65
67109;BME280;54027;50.786;7.058;2023-08-07T02:53:24;100836.69;;;14.02;89.57
67109;BME280;54027;50.786;7.058;2023-08-07T02:55:49;100834.16;;;13.98;90.14
67109;BME280;54027;50.786;7.058;2023-08-07T02:58:14;100840.34;;;13.94;89.84
67109;BME280;54027;50.786;7.058;2023-08-07T03:00:40;100850.75;;;13.92;90.32
67109;BME280;54027;50.786;7.058;2023-08-07T03:03:05;100850.06;;;13.86;91.48
67109;BME280;54027;50.786;7.058;2023-08-07T03:05:31;100843.25;;;13.79;92.41
67109;BME280;54027;50.786;7.058;2023-08-07T03:07:56;100852.03;;;13.72;92.78
67109;BME280;54027;50.786;7.058;2023-08-07T03:10:21;100848.69;;;13.68;92.31
67109;BME280;54027;50.786;7.058;2023-08-07T03:12:47;100850.44;;;13.66;92.56
67109;BME280;54027;50.786;7.058;2023-08-07T03:15:12;100854.00;;;13.62;93.29
67109;BME280;54027;50.786;7.058;2023-08-07T03:17:37;100848.06;;;13.54;95.16
67109;BME280;54027;50.786;7.058;2023-08-07T03:20:03;100845.53;;;13.51;94.23
67109;BME280;54027;50.786;7.058;2023-08-07T03:22:29;100845.63;;;13.46;94.38
67109;BME280;54027;50.786;7.058;2023-08-07T03:24:54;100855.22;;;13.43;95.77
67109;BME280;54027;50.786;7.058;2023-08-07T03:27:20;100844.88;;;13.41;95.50
67109;BME280;54027;50.786;7.058;2023-08-07T03:29:45;100850.13;;;13.38;96.32
67109;BME280;54027;50.786;7.058;2023-08-07T03:32:11;100848.41;;;13.37;96.45
67109;BME280;54027;50.786;7.058;2023-08-07T03:34:36;100850.16;;;13.35;96.16
67109;BME280;54027;50.786;7.058;2023-08-07T03:37:01;100851.09;;;13.31;97.97
67109;BME280;54027;50.786;7.058;2023-08-07T03:39:30;100845.97;;;13.28;98.14
67109;BME280;54027;50.786;7.058;2023-08-07T03:41:55;100856.41;;;13.24;98.78
67109;BME280;54027;50.786;7.058;2023-08-07T03:44:21;100851.22;;;13.25;98.32
67109;BME280;54027;50.786;7.058;2023-08-07T03:46:46;100856.50;;;13.19;99.02
67109;BME280;54027;50.786;7.058;2023-08-07T03:49:11;100860.88;;;13.16;100.00
67109;BME280;54027;50.786;7.058;2023-08-07T03:51:36;100854.88;;;13.12;100.00
67109;BME280;54027;50.786;7.058;2023-08-07T03:54:02;100869.69;;;13.09;100.00
67109;BME280;54027;50.786;7.058;2023-08-07T03:56:27;100864.50;;;13.07;100.00
67109;BME280;54027;50.786;7.058;2023-08-07T03:58:53;100861.09;;;13.05;100.00
67109;BME280;54027;50.786;7.058;2023-08-07T04:01:18;100857.63;;;13.05;100.00
67109;BME280;54027;50.786;7.058;2023-08-07T04:03:46;100872.38;;;13.03;100.00
67109;BME280;54027;50.786;7.058;2023-08-07T04:06:12;100870.66;;;13.02;100.00
67109;BME280;54027;50.786;7.058;2023-08-07T04:08:41;100864.66;;;12.96;100.00
67109;BME280;54027;50.786;7.058;2023-08-07T04:11:07;100868.09;;;12.97;100.00
67109;BME280;54027;50.786;7.058;2023-08-07T04:13:32;100876.78;;;12.94;100.00
67109;BME280;54027;50.786;7.058;2023-08-07T04:15:58;100868.19;;;12.92;100.00
67109;BME280;54027;50.786;7.058;2023-08-07T04:18:24;100872.59;;;12.87;100.00
67109;BME280;54027;50.786;7.058;2023-08-07T04:20:53;100875.19;;;12.86;100.00
67109;BME280;54027;50.786;7.058;2023-08-07T04:23:19;100879.56;;;12.84;100.00
67109;BME280;54027;50.786;7.058;2023-08-07T04:25:46;100881.34;;;12.80;100.00
67109;BME280;54027;50.786;7.058;2023-08-07T04:28:12;100889.13;;;12.80;100.00
67109;BME280;54027;50.786;7.058;2023-08-07T04:30:37;100882.25;;;12.78;100.00
67109;BME280;54027;50.786;7.058;2023-08-07T04:33:03;100884.84;;;12.78;100.00
67109;BME280;54027;50.786;7.058;2023-08-07T04:35:28;100883.97;;;12.77;100.00
67109;BME280;54027;50.786;7.058;2023-08-07T04:37:53;100886.63;;;12.76;100.00
67109;BME280;54027;50.786;7.058;2023-08-07T04:40:19;100886.63;;;12.76;100.00
67109;BME280;54027;50.786;7.058;2023-08-07T04:42:44;100894.41;;;12.74;100.00
67109;BME280;54027;50.786;7.058;2023-08-07T04:45:09;100897.00;;;12.74;100.00
67109;BME280;54027;50.786;7.058;2023-08-07T04:47:35;100901.31;;;12.74;100.00
67109;BME280;54027;50.786;7.058;2023-08-07T04:50:00;100904.81;;;12.71;100.00
67109;BME280;54027;50.786;7.058;2023-08-07T04:52:26;100893.53;;;12.74;100.00
67109;BME280;54027;50.786;7.058;2023-08-07T04:54:51;100899.63;;;12.73;100.00
67109;BME280;54027;50.786;7.058;2023-08-07T04:57:17;100903.00;;;12.76;100.00
67109;BME280;54027;50.786;7.058;2023-08-07T04:59:42;100894.34;;;12.77;100.00
67109;BME280;54027;50.786;7.058;2023-08-07T05:02:07;100903.00;;;12.76;100.00
67109;BME280;54027;50.786;7.058;2023-08-07T05:04:33;100898.69;;;12.77;100.00
67109;BME280;54027;50.786;7.058;2023-08-07T05:06:58;100893.41;;;12.83;100.00
67109;BME280;54027;50.786;7.058;2023-08-07T05:09:23;100892.44;;;12.88;100.00
67109;BME280;54027;50.786;7.058;2023-08-07T05:11:49;100894.94;;;12.94;100.00
67109;BME280;54027;50.786;7.058;2023-08-07T05:14:14;100893.16;;;12.98;100.00
67109;BME280;54027;50.786;7.058;2023-08-07T05:16:39;100888.78;;;13.03;100.00
67109;BME280;54027;50.786;7.058;2023-08-07T05:19:05;100891.31;;;13.08;100.00
67109;BME280;54027;50.786;7.058;2023-08-07T05:21:30;100896.41;;;13.14;100.00
67109;BME280;54027;50.786;7.058;2023-08-07T05:23:55;100898.94;;;13.17;100.00
67109;BME280;54027;50.786;7.058;2023-08-07T05:26:21;100900.59;;;13.21;100.00
67109;BME280;54027;50.786;7.058;2023-08-07T05:28:46;100888.38;;;13.27;100.00
67109;BME280;54027;50.786;7.058;2023-08-07T05:31:12;100888.25;;;13.33;100.00
67109;BME280;54027;50.786;7.058;2023-08-07T05:33:37;100897.69;;;13.39;98.92
67109;BME280;54027;50.786;7.058;2023-08-07T05:36:03;100881.97;;;13.46;96.97
67109;BME280;54027;50.786;7.058;2023-08-07T05:38:30;100880.03;;;13.59;95.69
67109;BME280;54027;50.786;7.058;2023-08-07T05:40:55;100882.44;;;13.68;94.45
67109;BME280;54027;50.786;7.058;2023-08-07T05:43:21;100890.06;;;13.76;93.14
67109;BME280;54027;50.786;7.058;2023-08-07T05:45:46;100892.63;;;13.79;93.58
67109;BME280;54027;50.786;7.058;2023-08-07T05:48:12;100899.53;;;13.80;92.79
67109;BME280;54027;50.786;7.058;2023-08-07T05:50:37;100899.41;;;13.86;93.59
67109;BME280;54027;50.786;7.058;2023-08-07T05:53:02;100889.84;;;13.86;91.56
67109;BME280;54027;50.786;7.058;2023-08-07T05:55:28;100898.38;;;13.93;92.03
67109;BME280;54027;50.786;7.058;2023-08-07T05:57:53;100900.13;;;13.92;91.80
67109;BME280;54027;50.786;7.058;2023-08-07T06:00:18;100900.97;;;13.94;91.75
67109;BME280;54027;50.786;7.058;2023-08-07T06:02:44;100909.66;;;13.93;89.81
67109;BME280;54027;50.786;7.058;2023-08-07T06:05:10;100911.38;;;13.94;90.16
67109;BME280;54027;50.786;7.058;2023-08-07T06:07:37;100912.22;;;13.95;90.75
67109;BME280;54027;50.786;7.058;2023-08-07T06:10:03;100907.84;;;13.97;88.96
67109;BME280;54027;50.786;7.058;2023-08-07T06:12:29;100902.59;;;14.00;88.46
67109;BME280;54027;50.786;7.058;2023-08-07T06:14:54;100904.34;;;13.98;88.88
67109;BME280;54027;50.786;7.058;2023-08-07T06:17:19;100906.94;;;13.99;88.37
67109;BME280;54027;50.786;7.058;2023-08-07T06:19:45;100913.81;;;14.02;87.60
67109;BME280;54027;50.786;7.058;2023-08-07T06:22:10;100902.47;;;14.06;86.84
67109;BME280;54027;50.786;7.058;2023-08-07T06:24:35;100923.19;;;14.09;86.59
67109;BME280;54027;50.786;7.058;2023-08-07T06:27:02;100926.75;;;14.05;86.90
67109;BME280;54027;50.786;7.058;2023-08-07T06:29:27;100932.06;;;13.99;88.79
67109;BME280;54027;50.786;7.058;2023-08-07T06:31:53;100928.72;;;13.92;88.49
67109;BME280;54027;50.786;7.058;2023-08-07T06:34:18;100929.75;;;13.84;89.46
67109;BME280;54027;50.786;7.058;2023-08-07T06:36:43;100929.88;;;13.78;90.46
67109;BME280;54027;50.786;7.058;2023-08-07T06:39:09;100942.19;;;13.68;92.27
67109;BME280;54027;50.786;7.058;2023-08-07T06:41:35;100949.28;;;13.59;94.52
67109;BME280;54027;50.786;7.058;2023-08-07T06:44:01;100952.94;;;13.47;94.60
67109;BME280;54027;50.786;7.058;2023-08-07T06:46:26;100969.50;;;13.40;95.95
67109;BME280;54027;50.786;7.058;2023-08-07T06:48:53;100961.84;;;13.32;97.55
67109;BME280;54027;50.786;7.058;2023-08-07T06:51:18;100961.09;;;13.24;98.27
67109;BME280;54027;50.786;7.058;2023-08-07T06:53:43;100960.38;;;13.18;99.19
67109;BME280;54027;50.786;7.058;2023-08-07T06:56:09;100950.91;;;13.14;99.59
67109;BME280;54027;50.786;7.058;2023-08-07T06:58:34;100954.38;;;13.13;100.00
67109;BME280;54027;50.786;7.058;2023-08-07T07:00:59;100961.34;;;13.09;100.00
67109;BME280;54027;50.786;7.058;2023-08-07T07:03:25;100959.69;;;13.04;100.00
67109;BME280;54027;50.786;7.058;2023-08-07T07:05:50;100955.41;;;13.03;100.00
67109;BME280;54027;50.786;7.058;2023-08-07T07:08:16;100958.06;;;12.99;100.00
67109;BME280;54027;50.786;7.058;2023-08-07T07:10:41;100966.69;;;12.98;100.00
67109;BME280;54027;50.786;7.058;2023-08-07T07:13:06;100976.22;;;12.96;100.00
67109;BME280;54027;50.786;7.058;2023-08-07T07:15:34;100973.66;;;12.95;100.00
67109;BME280;54027;50.786;7.058;2023-08-07T07:18:00;100974.47;;;12.97;100.00
67109;BME280;54027;50.786;7.058;2023-08-07T07:20:25;100977.03;;;13.02;100.00
67109;BME280;54027;50.786;7.058;2023-08-07T07:22:52;100984.84;;;12.98;100.00
67109;BME280;54027;50.786;7.058;2023-08-07T07:25:17;100977.97;;;12.96;100.00
67109;BME280;54027;50.786;7.058;2023-08-07T07:27:42;100991.81;;;12.95;100.00
67109;BME280;54027;50.786;7.058;2023-08-07T07:30:08;100996.09;;;12.97;100.00
67109;BME280;54027;50.786;7.058;2023-08-07T07:32:34;101003.81;;;13.04;100.00
67109;BME280;54027;50.786;7.058;2023-08-07T07:34:59;101002.94;;;13.05;100.00
67109;BME280;54027;50.786;7.058;2023-08-07T07:37:25;100987.19;;;13.17;100.00
67109;BME280;54027;50.786;7.058;2023-08-07T07:39:50;101001.81;;;13.22;100.00
67109;BME280;54027;50.786;7.058;2023-08-07T07:42:15;101000.13;;;13.20;100.00
67109;BME280;54027;50.786;7.058;2023-08-07T07:44:41;100992.25;;;13.24;100.00
67109;BME280;54027;50.786;7.058;2023-08-07T07:47:07;100999.13;;;13.28;100.00
67109;BME280;54027;50.786;7.058;2023-08-07T07:49:33;100999.03;;;13.33;100.00
67109;BME280;54027;50.786;7.058;2023-08-07T07:51:58;101005.91;;;13.38;100.00
67109;BME280;54027;50.786;7.058;2023-08-07T07:54:24;101010.03;;;13.48;100.00
67109;BME280;54027;50.786;7.058;2023-08-07T07:56:49;101015.91;;;13.61;100.00
67109;BME280;54027;50.786;7.058;2023-08-07T07:59:14;101014.13;;;13.65;100.00
67109;BME280;54027;50.786;7.058;2023-08-07T08:01:40;101020.91;;;13.72;100.00
67109;BME280;54027;50.786;7.058;2023-08-07T08:04:05;101019.09;;;13.77;99.53
67109;BME280;54027;50.786;7.058;2023-08-07T08:06:31;101032.88;;;13.80;98.78
67109;BME280;54027;50.786;7.058;2023-08-07T08:08:57;101025.84;;;13.87;98.96
67109;BME280;54027;50.786;7.058;2023-08-07T08:11:22;101010.06;;;13.96;97.85
67109;BME280;54027;50.786;7.058;2023-08-07T08:13:47;101025.50;;;14.05;96.09
67109;BME280;54027;50.786;7.058;2023-08-07T08:16:13;101024.63;;;14.06;95.42
67109;BME280;54027;50.786;7.058;2023-08-07T08:18:38;101028.03;;;14.09;96.38
67109;BME280;54027;50.786;7.058;2023-08-07T08:21:03;101037.59;;;14.07;95.34
67109;BME280;54027;50.786;7.058;2023-08-07T08:23:29;101033.13;;;14.16;94.86
67109;BME280;54027;50.786;7.058;2023-08-07T08:25:54;101040.72;;;14.25;95.49
67109;BME280;54027;50.786;7.058;2023-08-07T08:28:19;101047.59;;;14.29;93.99
67109;BME280;54027;50.786;7.058;2023-08-07T08:30:45;101044.84;;;14.38;93.29
67109;BME280;54027;50.786;7.058;2023-08-07T08:33:10;101046.34;;;14.51;93.16
67109;BME280;54027;50.786;7.058;2023-08-07T08:35:38;101053.97;;;14.58;90.92
67109;BME280;54027;50.786;7.058;2023-08-07T08:38:03;101040.66;;;14.74;91.22
67109;BME280;54027;50.786;7.058;2023-08-07T08:40:30;101050.06;;;14.81;89.60
67109;BME280;54027;50.786;7.058;2023-08-07T08:42:56;101044.66;;;14.90;89.06
67109;BME280;54027;50.786;7.058;2023-08-07T08:45:25;101031.31;;;15.03;88.84
67109;BME280;54027;50.786;7.058;2023-08-07T08:47:51;101043.31;;;15.10;88.14
67109;BME280;54027;50.786;7.058;2023-08-07T08:50:20;101058.81;;;15.15;87.66
67109;BME280;54027;50.786;7.058;2023-08-07T08:52:45;101062.03;;;15.26;86.99
67109;BME280;54027;50.786;7.058;2023-08-07T08:55:12;101061.81;;;15.35;87.92
67109;BME280;54027;50.786;7.058;2023-08-07T08:57:39;101070.34;;;15.43;88.88
67109;BME280;54027;50.786;7.058;2023-08-07T09:00:06;101053.09;;;15.38;87.72
67109;BME280;54027;50.786;7.058;2023-08-07T09:02:42;101060.75;;;15.44;88.28
67109;BME280;54027;50.786;7.058;2023-08-07T09:05:08;101063.56;;;15.36;88.04
67109;BME280;54027;50.786;7.058;2023-08-07T09:07:34;101069.75;;;15.31;87.87
67109;BME280;54027;50.786;7.058;2023-08-07T09:10:02;101074.13;;;15.29;88.34
67109;BME280;54027;50.786;7.058;2023-08-07T09:12:29;101084.19;;;15.45;89.35
67109;BME280;54027;50.786;7.058;2023-08-07T09:14:58;101071.22;;;15.42;85.96
67109;BME280;54027;50.786;7.058;2023-08-07T09:17:24;101058.78;;;15.55;85.28
67109;BME280;54027;50.786;7.058;2023-08-07T09:19:52;101076.41;;;15.81;85.48
67109;BME280;54027;50.786;7.058;2023-08-07T09:22:19;101072.53;;;15.97;83.57
67109;BME280;54027;50.786;7.058;2023-08-07T09:24:44;101060.16;;;16.05;81.03
67109;BME280;54027;50.786;7.058;2023-08-07T09:27:09;101056.19;;;16.22;80.73
67109;BME280;54027;50.786;7.058;2023-08-07T09:29:35;101072.13;;;16.44;81.54
67109;BME280;54027;50.786;7.058;2023-08-07T09:32:26;101073.03;;;16.42;79.23
67109;BME280;54027;50.786;7.058;2023-08-07T09:34:53;101063.44;;;16.44;79.35
67109;BME280;54027;50.786;7.058;2023-08-07T09:37:19;101081.91;;;16.36;78.43
67109;BME280;54027;50.786;7.058;2023-08-07T09:39:44;101087.66;;;16.16;78.24
67109;BME280;54027;50.786;7.058;2023-08-07T09:42:13;101093.25;;;16.01;78.60
67109;BME280;54027;50.786;7.058;2023-08-07T09:44:40;101110.00;;;15.91;79.09
67109;BME280;54027;50.786;7.058;2023-08-07T09:47:17;101106.78;;;16.17;79.45
67109;BME280;54027;50.786;7.058;2023-08-07T09:49:43;101108.06;;;16.33;79.31
67109;BME280;54027;50.786;7.058;2023-08-07T09:52:11;101106.88;;;16.45;79.35
67109;BME280;54027;50.786;7.058;2023-08-07T09:54:38;101109.31;;;16.51;79.22
67109;BME280;54027;50.786;7.058;2023-08-07T09:57:04;101118.78;;;16.55;79.51
67109;BME280;54027;50.786;7.058;2023-08-07T09:59:32;101129.06;;;16.61;80.20
67109;BME280;54027;50.786;7.058;2023-08-07T10:01:59;101124.09;;;16.52;79.60
67109;BME280;54027;50.786;7.058;2023-08-07T10:04:26;101126.69;;;16.52;79.49
67109;BME280;54027;50.786;7.058;2023-08-07T10:06:51;101140.69;;;16.49;80.58
67109;BME280;54027;50.786;7.058;2023-08-07T10:09:17;101125.84;;;16.51;79.77
67109;BME280;54027;50.786;7.058;2023-08-07T10:11:43;101133.06;;;16.74;79.95
67109;BME280;54027;50.786;7.058;2023-08-07T10:14:09;101132.63;;;16.89;78.62
67109;BME280;54027;50.786;7.058;2023-08-07T10:16:35;101128.28;;;16.90;77.28
67109;BME280;54027;50.786;7.058;2023-08-07T10:19:05;101135.28;;;17.18;77.57
67109;BME280;54027;50.786;7.058;2023-08-07T10:21:33;101123.41;;;17.07;76.36
67109;BME280;54027;50.786;7.058;2023-08-07T10:24:03;101133.16;;;17.02;76.50
67109;BME280;54027;50.786;7.058;2023-08-07T10:26:29;101121.38;;;17.18;76.03
67109;BME280;54027;50.786;7.058;2023-08-07T10:28:55;101113.44;;;17.21;75.50
67109;BME280;54027;50.786;7.058;2023-08-07T10:31:23;101099.44;;;17.51;74.16
67109;BME280;54027;50.786;7.058;2023-08-07T10:33:49;101084.09;;;17.67;72.63
67109;BME280;54027;50.786;7.058;2023-08-07T10:36:16;101073.53;;;17.70;71.56
67109;BME280;54027;50.786;7.058;2023-08-07T10:38:42;101076.53;;;17.85;70.73
67109;BME280;54027;50.786;7.058;2023-08-07T10:41:09;101068.41;;;17.94;69.96
67109;BME280;54027;50.786;7.058;2023-08-07T10:43:39;101090.50;;;18.11;70.32
67109;BME280;54027;50.786;7.058;2023-08-07T10:46:06;101033.31;;;18.00;67.54
67109;BME280;54027;50.786;7.058;2023-08-07T10:48:41;101041.06;;;18.03;67.65
67109;BME280;54027;50.786;7.058;2023-08-07T10:51:07;101066.25;;;18.06;68.07
67109;BME280;54027;50.786;7.058;2023-08-07T10:53:36;101061.69;;;18.12;67.79
67109;BME280;54027;50.786;7.058;2023-08-07T10:56:08;101061.78;;;18.09;67.61
67109;BME280;54027;50.786;7.058;2023-08-07T10:58:38;101041.13;;;18.26;66.83
67109;BME280;54027;50.786;7.058;2023-08-07T11:04:05;101016.22;;;18.63;65.14
67109;BME280;54027;50.786;7.058;2023-08-07T11:06:33;101044.00;;;18.67;65.50
67109;BME280;54027;50.786;7.058;2023-08-07T11:08:59;101031.94;;;18.63;65.02
67109;BME280;54027;50.786;7.058;2023-08-07T11:11:26;101014.91;;;18.51;63.04
67109;BME280;54027;50.786;7.058;2023-08-07T11:13:52;101045.53;;;18.49;65.04
67109;BME280;54027;50.786;7.058;2023-08-07T11:16:18;101041.19;;;18.48;64.84
67109;BME280;54027;50.786;7.058;2023-08-07T11:18:47;101027.75;;;18.80;63.28
67109;BME280;54027;50.786;7.058;2023-08-07T11:21:13;100986.34;;;19.13;61.20
67109;BME280;54027;50.786;7.058;2023-08-07T11:23:39;100992.69;;;19.29;61.66
67109;BME280;54027;50.786;7.058;2023-08-07T11:26:05;100973.69;;;19.02;60.73
67109;BME280;54027;50.786;7.058;2023-08-07T11:28:31;101026.34;;;18.72;62.29
67109;BME280;54027;50.786;7.058;2023-08-07T11:30:57;101040.31;;;18.72;62.95
67109;BME280;54027;50.786;7.058;2023-08-07T11:33:27;101034.47;;;19.11;62.79
67109;BME280;54027;50.786;7.058;2023-08-07T11:35:53;101048.31;;;19.14;63.26
67109;BME280;54027;50.786;7.058;2023-08-07T11:40:59;100965.66;;;19.69;59.29
67109;BME280;54027;50.786;7.058;2023-08-07T11:43:27;101001.75;;;20.04;59.96
67109;BME280;54027;50.786;7.058;2023-08-07T11:45:52;100972.38;;;20.35;59.18
67109;BME280;54027;50.786;7.058;2023-08-07T11:48:17;100974.63;;;20.04;58.84
67109;BME280;54027;50.786;7.058;2023-08-07T11:50:43;100952.75;;;19.65;58.11
67109;BME280;54027;50.786;7.058;2023-08-07T11:53:08;100999.97;;;19.43;59.65
67109;BME280;54027;50.786;7.058;2023-08-07T11:55:34;100948.53;;;19.60;56.64
67109;BME280;54027;50.786;7.058;2023-08-07T11:58:03;100937.31;;;19.37;55.98
67109;BME280;54027;50.786;7.058;2023-08-07T12:00:28;100955.06;;;19.30;57.09
67109;BME280;54027;50.786;7.058;2023-08-07T12:02:54;100964.00;;;19.67;57.13
67109;BME280;54027;50.786;7.058;2023-08-07T12:05:20;100939.28;;;19.52;55.57
67109;BME280;54027;50.786;7.058;2023-08-07T12:07:47;100899.72;;;19.38;52.93
67109;BME280;54027;50.786;7.058;2023-08-07T12:10:12;100905.72;;;19.20;52.55
67109;BME280;54027;50.786;7.058;2023-08-07T12:12:38;100898.13;;;19.34;52.56
67109;BME280;54027;50.786;7.058;2023-08-07T12:15:07;100908.22;;;19.23;52.53
67109;BME280;54027;50.786;7.058;2023-08-07T12:17:33;100931.97;;;19.18;53.61
67109;BME280;54027;50.786;7.058;2023-08-07T12:19:59;100947.47;;;19.44;54.50
67109;BME280;54027;50.786;7.058;2023-08-07T12:22:27;100879.03;;;19.91;50.87
67109;BME280;54027;50.786;7.058;2023-08-07T12:24:53;100903.53;;;20.29;51.69
67109;BME280;54027;50.786;7.058;2023-08-07T12:27:19;100844.09;;;20.63;48.26
67109;BME280;54027;50.786;7.058;2023-08-07T12:29:45;100810.84;;;20.81;46.37
67109;BME280;54027;50.786;7.058;2023-08-07T12:32:10;100840.00;;;20.58;47.53
67109;BME280;54027;50.786;7.058;2023-08-07T12:34:35;100855.00;;;21.09;47.69
67109;BME280;54027;50.786;7.058;2023-08-07T12:37:03;100847.03;;;20.93;47.60
67109;BME280;54027;50.786;7.058;2023-08-07T12:39:28;100885.16;;;21.19;49.34
67109;BME280;54027;50.786;7.058;2023-08-07T12:41:54;100861.19;;;21.25;48.08
67109;BME280;54027;50.786;7.058;2023-08-07T12:44:19;100873.66;;;21.04;48.66
67109;BME280;54027;50.786;7.058;2023-08-07T12:46:45;100872.06;;;20.83;48.10
67109;BME280;54027;50.786;7.058;2023-08-07T12:49:10;100876.13;;;20.53;48.38
67109;BME280;54027;50.786;7.058;2023-08-07T12:51:35;100893.66;;;20.90;48.93
67109;BME280;54027;50.786;7.058;2023-08-07T12:54:01;100870.88;;;21.07;47.17
67109;BME280;54027;50.786;7.058;2023-08-07T12:56:26;100873.50;;;21.24;47.92